Time;durP1;ratioP1;P1;durP2;ratioP2;P2;SDS_P1;SDS_P2;PMS_P1;PMS_P2;Temp;Humidity;BMP_temperature;BMP_pressure;BME280_temperature;BME280_humidity;BME280_pressure;Samples;Min_cycle;Max_cycle;Signal;HPM_P1;HPM_P2
2024/01/09 00:00:07;;;;;;;;;;;;;;;;;;5090030;28;19923;-85
2024/01/09 00:02:33;;;;;;;;;;;;;;;;;;5086817;28;19921;-85
2024/01/09 00:04:58;;;;;;;;;;;;;;;;;;5083495;28;20008;-85
2024/01/09 00:07:24;;;;;;;;;;;;;;;;;;5083651;28;19917;-85
2024/01/09 00:09:50;;;;;;;;;;;;;;;;;;5075256;28;19919;-86
2024/01/09 00:12:16;;;;;;;;;;;;;;;;;;5077281;28;20400;-85
2024/01/09 00:14:42;;;;;;;;;;;;;;;;;;5088701;28;20320;-84
2024/01/09 00:17:08;;;;;;;;;;;;;;;;;;5081404;28;19990;-85
2024/01/09 00:19:34;;;;;;;;;;;;;;;;;;5075939;28;19977;-84
2024/01/09 00:22:00;;;;;;;;;;;;;;;;;;5081474;28;19915;-85
2024/01/09 00:24:26;;;;;;;;;;;;;;;;;;5076737;28;20011;-85
2024/01/09 00:26:52;;;;;;;;;;;;;;;;;;5081634;28;19923;-84
2024/01/09 00:29:18;;;;;;;;;;;;;;;;;;5087064;28;19912;-85
2024/01/09 00:31:44;;;;;;;;;;;;;;;;;;5082447;28;19951;-85
2024/01/09 00:34:10;;;;;;;;;;;;;;;;;;5088408;28;19923;-84
2024/01/09 00:36:35;;;;;;;;;;;;;;;;;;5083838;28;19912;-85
2024/01/09 00:39:01;;;;;;;;;;;;;;;;;;5071126;28;19969;-85
2024/01/09 00:41:27;;;;;;;;;;;;;;;;;;5089859;28;19912;-84
2024/01/09 00:43:53;;;;;;;;;;;;;;;;;;5087513;28;19934;-84
2024/01/09 00:46:19;;;;;;;;;;;;;;;;;;5088536;28;20073;-85
2024/01/09 00:48:45;;;;;;;;;;;;;;;;;;5086903;28;19935;-85
2024/01/09 00:51:10;;;;;;;;;;;;;;;;;;5074965;28;19912;-84
2024/01/09 00:53:36;;;;;;;;;;;;;;;;;;5088609;28;19930;-85
2024/01/09 00:56:02;;;;;;;;;;;;;;;;;;5078671;28;19962;-85
2024/01/09 00:58:28;;;;;;;;;;;;;;;;;;5079551;28;19931;-86
2024/01/09 01:00:54;;;;;;;;;;;;;;;;;;5088804;28;19919;-85
2024/01/09 01:03:20;;;;;;;;;;;;;;;;;;5085879;28;19991;-86
2024/01/09 01:05:46;;;;;;;;;;;;;;;;;;5082221;28;19920;-85
2024/01/09 01:08:12;;;;;;;;;;;;;;;;;;5087817;28;19919;-86
2024/01/09 01:10:37;;;;;;;;;;;;;;;;;;5084853;28;19912;-84
2024/01/09 01:13:03;;;;;;;;;;;;;;;;;;5089964;28;19923;-85
2024/01/09 01:15:29;;;;;;;;;;;;;;;;;;5080393;28;20117;-85
2024/01/09 01:17:55;;;;;;;;;;;;;;;;;;5088865;28;19916;-86
2024/01/09 01:20:21;;;;;;;;;;;;;;;;;;5086577;28;20011;-85
2024/01/09 01:22:47;;;;;;;;;;;;;;;;;;5088903;28;19936;-85
2024/01/09 01:25:12;;;;;;;;;;;;;;;;;;5083755;28;19916;-86
2024/01/09 01:27:38;;;;;;;;;;;;;;;;;;5085683;28;20367;-85
2024/01/09 01:30:04;;;;;;;;;;;;;;;;;;5086017;28;19920;-86
2024/01/09 01:32:30;;;;;;;;;;;;;;;;;;5084336;28;19916;-85
2024/01/09 01:34:56;;;;;;;;;;;;;;;;;;5088426;28;19956;-85
2024/01/09 01:37:22;;;;;;;;;;;;;;;;;;5087882;28;19912;-86
2024/01/09 01:39:47;;;;;;;;;;;;;;;;;;5079247;28;19957;-85
2024/01/09 01:42:13;;;;;;;;;;;;;;;;;;5079348;28;19952;-85
2024/01/09 01:44:39;;;;;;;;;;;;;;;;;;5085359;28;19912;-85
2024/01/09 01:47:05;;;;;;;;;;;;;;;;;;5079505;28;19920;-85
2024/01/09 01:49:31;;;;;;;;;;;;;;;;;;5085923;28;19916;-85
2024/01/09 01:51:57;;;;;;;;;;;;;;;;;;5085725;28;19923;-84
2024/01/09 01:54:23;;;;;;;;;;;;;;;;;;5085645;28;20003;-85
2024/01/09 01:56:48;;;;;;;;;;;;;;;;;;5079421;28;20392;-85
2024/01/09 01:59:14;;;;;;;;;;;;;;;;;;5082944;28;20364;-85
2024/01/09 02:01:40;;;;;;;;;;;;;;;;;;5081487;28;20291;-85
2024/01/09 02:04:06;;;;;;;;;;;;;;;;;;5081817;28;19912;-85
2024/01/09 02:06:32;;;;;;;;;;;;;;;;;;5085326;28;20014;-85
2024/01/09 02:08:57;;;;;;;;;;;;;;;;;;5080500;28;19924;-84
2024/01/09 02:11:23;;;;;;;;;;;;;;;;;;5086627;28;19920;-85
2024/01/09 02:13:49;;;;;;;;;;;;;;;;;;5079181;28;19918;-85
2024/01/09 02:16:15;;;;;;;;;;;;;;;;;;5082349;28;19959;-85
2024/01/09 02:18:41;;;;;;;;;;;;;;;;;;5088248;28;19913;-85
2024/01/09 02:21:07;;;;;;;;;;;;;;;;;;5086495;28;20406;-84
2024/01/09 02:23:33;;;;;;;;;;;;;;;;;;5083695;28;20294;-85
2024/01/09 02:25:58;;;;;;;;;;;;;;;;;;5076018;28;19916;-84
2024/01/09 02:28:24;;;;;;;;;;;;;;;;;;5087623;28;19939;-85
2024/01/09 02:30:53;;;;;;;;;;;;;;;;;;5087062;28;19919;-85
2024/01/09 02:33:19;;;;;;;;;;;;;;;;;;5087382;28;19921;-86
2024/01/09 02:35:45;;;;;;;;;;;;;;;;;;5085578;28;19920;-85
2024/01/09 02:38:10;;;;;;;;;;;;;;;;;;5087836;28;19912;-85
2024/01/09 02:40:36;;;;;;;;;;;;;;;;;;5084804;28;20007;-85
2024/01/09 02:43:02;;;;;;;;;;;;;;;;;;5079273;28;19920;-85
2024/01/09 02:45:28;;;;;;;;;;;;;;;;;;5085254;28;20011;-85
2024/01/09 02:47:54;;;;;;;;;;;;;;;;;;5078135;28;19920;-84
2024/01/09 02:50:23;;;;;;;;;;;;;;;;;;5077732;28;19913;-85
2024/01/09 02:52:48;;;;;;;;;;;;;;;;;;5084417;28;19916;-86
2024/01/09 02:55:14;;;;;;;;;;;;;;;;;;5083826;28;20370;-87
2024/01/09 02:57:40;;;;;;;;;;;;;;;;;;5088334;28;20403;-86
2024/01/09 03:00:06;;;;;;;;;;;;;;;;;;5079115;28;20295;-86
2024/01/09 03:02:32;;;;;;;;;;;;;;;;;;5088669;28;19946;-85
2024/01/09 03:04:58;;;;;;;;;;;;;;;;;;5083181;28;19912;-85
2024/01/09 03:07:24;;;;;;;;;;;;;;;;;;5085889;28;19922;-85
2024/01/09 03:09:49;;;;;;;;;;;;;;;;;;5082855;28;20386;-85
2024/01/09 03:12:15;;;;;;;;;;;;;;;;;;5091059;28;20310;-85
2024/01/09 03:14:41;;;;;;;;;;;;;;;;;;5085805;28;20283;-86
2024/01/09 03:17:07;;;;;;;;;;;;;;;;;;5079938;28;20069;-86
2024/01/09 03:19:33;;;;;;;;;;;;;;;;;;5087247;28;20083;-85
2024/01/09 03:21:59;;;;;;;;;;;;;;;;;;5089047;28;20324;-86
2024/01/09 03:24:25;;;;;;;;;;;;;;;;;;5086461;28;19929;-85
2024/01/09 03:26:50;;;;;;;;;;;;;;;;;;5091362;28;19920;-86
2024/01/09 03:29:17;;;;;;;;;;;;;;;;;;5078860;28;19917;-85
2024/01/09 03:31:43;;;;;;;;;;;;;;;;;;5087774;28;20328;-86
2024/01/09 03:34:09;;;;;;;;;;;;;;;;;;5081784;28;19930;-88
2024/01/09 03:36:35;;;;;;;;;;;;;;;;;;5083875;28;19999;-85
2024/01/09 03:39:01;;;;;;;;;;;;;;;;;;5083884;28;20371;-86
2024/01/09 03:41:27;;;;;;;;;;;;;;;;;;5081090;28;20490;-85
2024/01/09 03:43:52;;;;;;;;;;;;;;;;;;5079109;28;20377;-85
2024/01/09 03:46:18;;;;;;;;;;;;;;;;;;5081631;28;20394;-86
2024/01/09 03:48:44;;;;;;;;;;;;;;;;;;5080585;28;19912;-86
2024/01/09 03:51:10;;;;;;;;;;;;;;;;;;5087397;28;19912;-86
2024/01/09 03:53:36;;;;;;;;;;;;;;;;;;5088263;28;19987;-86
2024/01/09 03:56:02;;;;;;;;;;;;;;;;;;5086961;28;19943;-86
2024/01/09 03:58:28;;;;;;;;;;;;;;;;;;5083242;28;19921;-86
2024/01/09 04:00:54;;;;;;;;;;;;;;;;;;5089703;28;19912;-85
2024/01/09 04:03:20;;;;;;;;;;;;;;;;;;5081882;28;19912;-86
2024/01/09 04:05:46;;;;;;;;;;;;;;;;;;5082157;28;19916;-86
2024/01/09 04:08:12;;;;;;;;;;;;;;;;;;5089854;28;19912;-86
2024/01/09 04:10:37;;;;;;;;;;;;;;;;;;5084385;28;19966;-85
2024/01/09 04:13:03;;;;;;;;;;;;;;;;;;5095986;28;19912;-85
2024/01/09 04:15:29;;;;;;;;;;;;;;;;;;5092417;28;20191;-85
2024/01/09 04:17:55;;;;;;;;;;;;;;;;;;5088856;28;19916;-86
2024/01/09 04:20:21;;;;;;;;;;;;;;;;;;5091004;28;19929;-86
2024/01/09 04:22:47;;;;;;;;;;;;;;;;;;5090083;28;19942;-85
2024/01/09 04:25:13;;;;;;;;;;;;;;;;;;5084824;28;19927;-86
2024/01/09 04:27:39;;;;;;;;;;;;;;;;;;5089275;28;20371;-86
2024/01/09 04:30:04;;;;;;;;;;;;;;;;;;5082700;28;20326;-85
2024/01/09 04:32:30;;;;;;;;;;;;;;;;;;5087708;28;20147;-86
2024/01/09 04:34:57;;;;;;;;;;;;;;;;;;5083004;28;19916;-86
2024/01/09 04:37:23;;;;;;;;;;;;;;;;;;5088379;28;19920;-85
2024/01/09 04:39:49;;;;;;;;;;;;;;;;;;5088689;28;20003;-86
2024/01/09 04:42:15;;;;;;;;;;;;;;;;;;5089845;28;20006;-85
2024/01/09 04:44:41;;;;;;;;;;;;;;;;;;5082968;28;19945;-86
2024/01/09 04:47:07;;;;;;;;;;;;;;;;;;5081697;28;19920;-86
2024/01/09 04:49:33;;;;;;;;;;;;;;;;;;5080822;28;19924;-87
2024/01/09 04:51:58;;;;;;;;;;;;;;;;;;5090313;28;20366;-88
2024/01/09 04:54:24;;;;;;;;;;;;;;;;;;5091412;28;20293;-88
2024/01/09 04:56:50;;;;;;;;;;;;;;;;;;5077854;28;20639;-88
2024/01/09 04:59:16;;;;;;;;;;;;;;;;;;5085203;28;19912;-87
2024/01/09 05:01:42;;;;;;;;;;;;;;;;;;5086702;28;19935;-86
2024/01/09 05:04:08;;;;;;;;;;;;;;;;;;5088422;28;20043;-85
2024/01/09 05:06:33;;;;;;;;;;;;;;;;;;5074671;28;20519;-86
2024/01/09 05:08:59;;;;;;;;;;;;;;;;;;5083739;28;19912;-85
2024/01/09 05:11:25;;;;;;;;;;;;;;;;;;5084224;28;19913;-85
2024/01/09 05:13:51;;;;;;;;;;;;;;;;;;5083609;28;19956;-85
2024/01/09 05:16:17;;;;;;;;;;;;;;;;;;5082682;28;19916;-86
2024/01/09 05:18:44;;;;;;;;;;;;;;;;;;5081361;28;19965;-84
2024/01/09 05:21:10;;;;;;;;;;;;;;;;;;5088370;28;19912;-85
2024/01/09 05:23:35;;;;;;;;;;;;;;;;;;5085454;28;19932;-85
2024/01/09 05:26:01;;;;;;;;;;;;;;;;;;5082971;28;20045;-85
2024/01/09 05:28:27;;;;;;;;;;;;;;;;;;5087329;28;19920;-86
2024/01/09 05:30:53;;;;;;;;;;;;;;;;;;5086498;28;20444;-87
2024/01/09 05:33:19;;;;;;;;;;;;;;;;;;5083230;28;19912;-86
2024/01/09 05:35:45;;;;;;;;;;;;;;;;;;5088005;28;19922;-89
2024/01/09 05:38:10;;;;;;;;;;;;;;;;;;5087692;28;19912;-88
2024/01/09 05:40:36;;;;;;;;;;;;;;;;;;5082788;28;19993;-86
2024/01/09 05:43:02;;;;;;;;;;;;;;;;;;5079740;28;19919;-85
2024/01/09 05:45:28;;;;;;;;;;;;;;;;;;5085636;28;19916;-85
2024/01/09 05:47:54;;;;;;;;;;;;;;;;;;5082501;28;19912;-85
2024/01/09 05:50:20;;;;;;;;;;;;;;;;;;5085905;28;19916;-85
2024/01/09 05:52:45;;;;;;;;;;;;;;;;;;5079672;28;20048;-83
2024/01/09 05:55:11;;;;;;;;;;;;;;;;;;5076938;28;20302;-84
2024/01/09 05:57:37;;;;;;;;;;;;;;;;;;5082165;28;20340;-85
2024/01/09 06:00:03;;;;;;;;;;;;;;;;;;5086450;28;19912;-84
2024/01/09 06:02:29;;;;;;;;;;;;;;;;;;5093230;28;19919;-85
2024/01/09 06:04:55;;;;;;;;;;;;;;;;;;5100378;28;19920;-86
2024/01/09 06:07:20;;;;;;;;;;;;;;;;;;5094832;28;19991;-86
2024/01/09 06:09:46;;;;;;;;;;;;;;;;;;5087913;28;19916;-86
2024/01/09 06:12:12;;;;;;;;;;;;;;;;;;5083695;28;20336;-85
2024/01/09 06:14:38;;;;;;;;;;;;;;;;;;5076294;28;19926;-86
2024/01/09 06:17:05;;;;;;;;;;;;;;;;;;5088901;28;19912;-86
2024/01/09 06:19:31;;;;;;;;;;;;;;;;;;5086195;28;19919;-85
2024/01/09 06:21:57;;;;;;;;;;;;;;;;;;5087915;28;19920;-86
2024/01/09 06:24:22;;;;;;;;;;;;;;;;;;5097689;28;19920;-86
2024/01/09 06:26:48;;;;;;;;;;;;;;;;;;5099503;28;20322;-86
2024/01/09 06:29:14;;;;;;;;;;;;;;;;;;5082300;28;20264;-85
2024/01/09 06:31:40;;;;;;;;;;;;;;;;;;5079725;28;20044;-86
2024/01/09 06:34:06;;;;;;;;;;;;;;;;;;5073420;28;19927;-85
2024/01/09 06:36:32;;;;;;;;;;;;;;;;;;5088684;28;19920;-86
2024/01/09 06:38:58;;;;;;;;;;;;;;;;;;5091616;28;20006;-86
2024/01/09 06:41:24;;;;;;;;;;;;;;;;;;5082706;28;19913;-86
2024/01/09 06:43:50;;;;;;;;;;;;;;;;;;5091684;28;19920;-86
2024/01/09 06:46:16;;;;;;;;;;;;;;;;;;5082029;28;20062;-85
2024/01/09 06:48:42;;;;;;;;;;;;;;;;;;5089557;28;20007;-86
2024/01/09 06:51:08;;;;;;;;;;;;;;;;;;5082766;28;19918;-86
2024/01/09 06:53:34;;;;;;;;;;;;;;;;;;5074629;28;19912;-86
2024/01/09 06:56:00;;;;;;;;;;;;;;;;;;5089202;28;19912;-86
2024/01/09 06:58:25;;;;;;;;;;;;;;;;;;5091762;28;19916;-86
2024/01/09 07:00:51;;;;;;;;;;;;;;;;;;5090343;28;19912;-86
2024/01/09 07:03:17;;;;;;;;;;;;;;;;;;5088505;28;19922;-86
2024/01/09 07:05:43;;;;;;;;;;;;;;;;;;5087489;28;19964;-85
2024/01/09 07:08:09;;;;;;;;;;;;;;;;;;5091343;28;20029;-86
2024/01/09 07:10:35;;;;;;;;;;;;;;;;;;5081961;28;19916;-85
2024/01/09 07:13:01;;;;;;;;;;;;;;;;;;5081750;28;20343;-85
2024/01/09 07:15:26;;;;;;;;;;;;;;;;;;5082438;28;19922;-85
2024/01/09 07:17:52;;;;;;;;;;;;;;;;;;5079992;28;19916;-85
2024/01/09 07:20:18;;;;;;;;;;;;;;;;;;5090348;28;19912;-85
2024/01/09 07:22:44;;;;;;;;;;;;;;;;;;5075304;28;20429;-85
2024/01/09 07:25:10;;;;;;;;;;;;;;;;;;5080667;28;19999;-84
2024/01/09 07:27:36;;;;;;;;;;;;;;;;;;5083295;28;19916;-85
2024/01/09 07:30:02;;;;;;;;;;;;;;;;;;5088543;28;19912;-85
2024/01/09 07:32:28;;;;;;;;;;;;;;;;;;5078911;28;19912;-85
2024/01/09 07:34:54;;;;;;;;;;;;;;;;;;5071526;28;20385;-85
2024/01/09 07:37:20;;;;;;;;;;;;;;;;;;5084050;28;19966;-86
2024/01/09 07:39:48;;;;;;;;;;;;;;;;;;5091427;28;19912;-86
2024/01/09 07:42:14;;;;;;;;;;;;;;;;;;5092703;28;20433;-85
2024/01/09 07:44:40;;;;;;;;;;;;;;;;;;5091331;28;20007;-85
2024/01/09 07:47:07;;;;;;;;;;;;;;;;;;5073537;28;20437;-86
2024/01/09 07:49:33;;;;;;;;;;;;;;;;;;5071595;28;19915;-85
2024/01/09 07:51:59;;;;;;;;;;;;;;;;;;5091315;28;19916;-86
2024/01/09 07:54:25;;;;;;;;;;;;;;;;;;5089441;28;20295;-85
2024/01/09 07:56:51;;;;;;;;;;;;;;;;;;5076378;28;20478;-85
2024/01/09 07:59:16;;;;;;;;;;;;;;;;;;5084153;28;19935;-85
2024/01/09 08:01:42;;;;;;;;;;;;;;;;;;5089360;28;19916;-86
2024/01/09 08:04:08;;;;;;;;;;;;;;;;;;5078557;28;19919;-86
2024/01/09 08:06:34;;;;;;;;;;;;;;;;;;5088233;28;19916;-85
2024/01/09 08:09:00;;;;;;;;;;;;;;;;;;5083383;28;19913;-85
2024/01/09 08:11:26;;;;;;;;;;;;;;;;;;5073649;28;19919;-85
2024/01/09 08:13:52;;;;;;;;;;;;;;;;;;5089135;28;19912;-85
2024/01/09 08:16:17;;;;;;;;;;;;;;;;;;5086197;28;19919;-86
2024/01/09 08:18:43;;;;;;;;;;;;;;;;;;5085199;28;19916;-86
2024/01/09 08:21:09;;;;;;;;;;;;;;;;;;5087129;28;19912;-85
2024/01/09 08:23:35;;;;;;;;;;;;;;;;;;5082536;28;19924;-86
2024/01/09 08:26:02;;;;;;;;;;;;;;;;;;5080548;28;19924;-86
2024/01/09 08:28:28;;;;;;;;;;;;;;;;;;5087426;28;20420;-85
2024/01/09 08:30:53;;;;;;;;;;;;;;;;;;5082993;28;19920;-85
2024/01/09 08:33:19;;;;;;;;;;;;;;;;;;5074976;28;19971;-86
2024/01/09 08:35:49;;;;;;;;;;;;;;;;;;5086711;28;19966;-86
2024/01/09 08:38:15;;;;;;;;;;;;;;;;;;5070483;28;19916;-85
2024/01/09 08:40:41;;;;;;;;;;;;;;;;;;5076016;28;19934;-86
2024/01/09 08:43:07;;;;;;;;;;;;;;;;;;5089764;28;19920;-86
2024/01/09 08:45:33;;;;;;;;;;;;;;;;;;5080425;28;19967;-86
2024/01/09 08:47:59;;;;;;;;;;;;;;;;;;5089701;28;20393;-85
2024/01/09 08:50:25;;;;;;;;;;;;;;;;;;5090303;28;20518;-86
2024/01/09 08:52:52;;;;;;;;;;;;;;;;;;5089848;28;19938;-85
2024/01/09 08:55:17;;;;;;;;;;;;;;;;;;5089357;28;19914;-85
2024/01/09 08:57:43;;;;;;;;;;;;;;;;;;5090004;28;20327;-86
2024/01/09 09:00:09;;;;;;;;;;;;;;;;;;5082968;28;19912;-85
2024/01/09 09:02:35;;;;;;;;;;;;;;;;;;5074908;28;19939;-85
2024/01/09 09:05:01;;;;;;;;;;;;;;;;;;5083479;28;20050;-85
2024/01/09 09:07:27;;;;;;;;;;;;;;;;;;5084623;28;19966;-85
2024/01/09 09:09:53;;;;;;;;;;;;;;;;;;5088254;28;20010;-82
2024/01/09 09:12:19;;;;;;;;;;;;;;;;;;5084807;28;19918;-83
2024/01/09 09:14:44;;;;;;;;;;;;;;;;;;5075408;28;19922;-84
2024/01/09 09:17:13;;;;;;;;;;;;;;;;;;5088550;28;19958;-83
2024/01/09 09:19:39;;;;;;;;;;;;;;;;;;5088502;28;20282;-84
2024/01/09 09:22:05;;;;;;;;;;;;;;;;;;5089456;28;20007;-84
2024/01/09 09:24:31;;;;;;;;;;;;;;;;;;5079161;28;19927;-84
2024/01/09 09:26:57;;;;;;;;;;;;;;;;;;5081667;28;20010;-85
2024/01/09 09:29:24;;;;;;;;;;;;;;;;;;5083574;28;21295;-84
2024/01/09 09:31:50;;;;;;;;;;;;;;;;;;5073109;28;19938;-83
2024/01/09 09:34:16;;;;;;;;;;;;;;;;;;5071643;28;19955;-84
2024/01/09 09:36:42;;;;;;;;;;;;;;;;;;5068539;28;20003;-83
2024/01/09 09:39:08;;;;;;;;;;;;;;;;;;5079904;28;20412;-87
2024/01/09 09:41:33;;;;;;;;;;;;;;;;;;5072658;28;20363;-82
2024/01/09 09:43:59;;;;;;;;;;;;;;;;;;5071968;28;19948;-83
2024/01/09 09:46:32;;;;;;;;;;;;;;;;;;5081903;28;19942;-83
2024/01/09 09:48:57;;;;;;;;;;;;;;;;;;5088296;28;20381;-79
2024/01/09 09:51:23;;;;;;;;;;;;;;;;;;5079877;28;19913;-83
2024/01/09 09:53:49;;;;;;;;;;;;;;;;;;5078970;28;19916;-83
2024/01/09 09:56:15;;;;;;;;;;;;;;;;;;5073054;28;20432;-81
2024/01/09 09:58:41;;;;;;;;;;;;;;;;;;5087151;28;19954;-82
2024/01/09 10:01:07;;;;;;;;;;;;;;;;;;5086654;28;19916;-83
2024/01/09 10:03:33;;;;;;;;;;;;;;;;;;5087663;28;19973;-82
2024/01/09 10:05:59;;;;;;;;;;;;;;;;;;5081699;28;20006;-85
2024/01/09 10:08:25;;;;;;;;;;;;;;;;;;5088508;28;19919;-85
2024/01/09 10:10:51;;;;;;;;;;;;;;;;;;5087930;28;20172;-89
2024/01/09 10:13:17;;;;;;;;;;;;;;;;;;5095424;28;20038;-76
2024/01/09 10:15:43;;;;;;;;;;;;;;;;;;5082518;28;19969;-82
2024/01/09 10:18:09;;;;;;;;;;;;;;;;;;5092405;28;20375;-82
2024/01/09 10:20:34;;;;;;;;;;;;;;;;;;5092560;28;20277;-86
2024/01/09 10:23:00;;;;;;;;;;;;;;;;;;5092397;28;19920;-85
2024/01/09 10:25:26;;;;;;;;;;;;;;;;;;5091582;28;20347;-86
2024/01/09 10:27:53;;;;;;;;;;;;;;;;;;5089657;28;19916;-85
2024/01/09 10:30:21;;;;;;;;;;;;;;;;;;5090008;28;19967;-85
2024/01/09 10:32:47;;;;;;;;;;;;;;;;;;5090243;28;19920;-85
2024/01/09 10:35:13;;;;;;;;;;;;;;;;;;5089893;28;20263;-85
2024/01/09 10:37:39;;;;;;;;;;;;;;;;;;5082641;28;19918;-84
2024/01/09 10:40:05;;;;;;;;;;;;;;;;;;5080963;28;20390;-85
2024/01/09 10:42:31;;;;;;;;;;;;;;;;;;5084982;28;19916;-85
2024/01/09 10:44:57;;;;;;;;;;;;;;;;;;5094387;28;20217;-85
2024/01/09 10:47:23;;;;;;;;;;;;;;;;;;5095647;28;19916;-85
2024/01/09 10:49:49;;;;;;;;;;;;;;;;;;5086576;28;20176;-86
2024/01/09 10:52:15;;;;;;;;;;;;;;;;;;5088796;28;19917;-87
2024/01/09 10:54:41;;;;;;;;;;;;;;;;;;5092968;28;19931;-87
2024/01/09 10:57:07;;;;;;;;;;;;;;;;;;5090932;28;20023;-83
2024/01/09 10:59:33;;;;;;;;;;;;;;;;;;5089510;28;20340;-81
2024/01/09 11:01:59;;;;;;;;;;;;;;;;;;5090625;28;19912;-81
2024/01/09 11:04:25;;;;;;;;;;;;;;;;;;5087283;28;19934;-80
2024/01/09 11:06:51;;;;;;;;;;;;;;;;;;5082002;28;20366;-80
2024/01/09 11:09:17;;;;;;;;;;;;;;;;;;5078862;28;20003;-80
2024/01/09 11:11:43;;;;;;;;;;;;;;;;;;5070982;28;19913;-82
2024/01/09 11:14:09;;;;;;;;;;;;;;;;;;5084051;28;19921;-81
2024/01/09 11:16:34;;;;;;;;;;;;;;;;;;5090391;28;19962;-80
2024/01/09 11:19:01;;;;;;;;;;;;;;;;;;5081032;28;20415;-81
2024/01/09 11:21:27;;;;;;;;;;;;;;;;;;5085991;28;20496;-80
2024/01/09 11:23:55;;;;;;;;;;;;;;;;;;5081589;28;19924;-82
2024/01/09 11:26:21;;;;;;;;;;;;;;;;;;5089459;28;19920;-80
2024/01/09 11:28:47;;;;;;;;;;;;;;;;;;5089651;28;20338;-82
2024/01/09 11:31:13;;;;;;;;;;;;;;;;;;5085502;28;19918;-81
2024/01/09 11:33:41;;;;;;;;;;;;;;;;;;5090598;28;19965;-80
2024/01/09 11:36:07;;;;;;;;;;;;;;;;;;5090869;28;19989;-79
2024/01/09 11:38:33;;;;;;;;;;;;;;;;;;5089151;28;19960;-79
2024/01/09 11:40:59;;;;;;;;;;;;;;;;;;5075809;28;19986;-80
2024/01/09 11:43:25;;;;;;;;;;;;;;;;;;5071354;28;19916;-80
2024/01/09 11:45:51;;;;;;;;;;;;;;;;;;5073746;28;20448;-80
2024/01/09 11:48:16;;;;;;;;;;;;;;;;;;5080204;28;20410;-80
2024/01/09 11:50:42;;;;;;;;;;;;;;;;;;5080960;28;19935;-80
2024/01/09 11:53:09;;;;;;;;;;;;;;;;;;5079961;28;19938;-80
2024/01/09 11:55:34;;;;;;;;;;;;;;;;;;5070344;28;19908;-79
2024/01/09 11:58:00;;;;;;;;;;;;;;;;;;5076903;28;19934;-80
2024/01/09 12:00:26;;;;;;;;;;;;;;;;;;5080180;28;20378;-81
2024/01/09 12:02:52;;;;;;;;;;;;;;;;;;5077511;28;20416;-81
2024/01/09 12:05:18;;;;;;;;;;;;;;;;;;5070190;28;19908;-80
2024/01/09 12:07:44;;;;;;;;;;;;;;;;;;5074901;28;19973;-80
2024/01/09 12:10:10;;;;;;;;;;;;;;;;;;5076591;28;19912;-80
2024/01/09 12:12:35;;;;;;;;;;;;;;;;;;5089647;28;19923;-81
2024/01/09 12:15:01;;;;;;;;;;;;;;;;;;5075592;28;19913;-80
2024/01/09 12:17:29;;;;;;;;;;;;;;;;;;5070069;28;20003;-81
2024/01/09 12:19:55;;;;;;;;;;;;;;;;;;5079075;28;19923;-81
2024/01/09 12:22:21;;;;;;;;;;;;;;;;;;5074670;28;19912;-82
2024/01/09 12:24:47;;;;;;;;;;;;;;;;;;5084277;28;19920;-82
2024/01/09 12:27:13;;;;;;;;;;;;;;;;;;5089602;28;19916;-80
2024/01/09 12:29:40;;;;;;;;;;;;;;;;;;5073388;28;19916;-80
2024/01/09 12:32:05;;;;;;;;;;;;;;;;;;5080736;28;19920;-81
2024/01/09 12:34:31;;;;;;;;;;;;;;;;;;5084206;28;19916;-80
2024/01/09 12:36:58;;;;;;;;;;;;;;;;;;5084982;28;19918;-81
2024/01/09 12:39:24;;;;;;;;;;;;;;;;;;5085140;28;19908;-82
2024/01/09 12:41:53;;;;;;;;;;;;;;;;;;5086123;28;19923;-82
2024/01/09 12:44:19;;;;;;;;;;;;;;;;;;5083058;28;19909;-82
2024/01/09 12:46:45;;;;;;;;;;;;;;;;;;5080329;28;19916;-82
2024/01/09 12:49:10;;;;;;;;;;;;;;;;;;5070256;28;19912;-81
2024/01/09 12:51:36;;;;;;;;;;;;;;;;;;5086736;28;20419;-82
2024/01/09 12:54:02;;;;;;;;;;;;;;;;;;5089181;28;20278;-82
2024/01/09 12:56:28;;;;;;;;;;;;;;;;;;5088979;28;20631;-81
2024/01/09 12:58:54;;;;;;;;;;;;;;;;;;5079504;28;19957;-83
2024/01/09 13:01:20;;;;;;;;;;;;;;;;;;5070667;28;19912;-82
2024/01/09 13:03:46;;;;;;;;;;;;;;;;;;5075912;28;20495;-82
2024/01/09 13:06:12;;;;;;;;;;;;;;;;;;5081773;28;19912;-82
2024/01/09 13:08:38;;;;;;;;;;;;;;;;;;5081131;28;20121;-82
2024/01/09 13:11:04;;;;;;;;;;;;;;;;;;5086119;28;19919;-81
2024/01/09 13:13:30;;;;;;;;;;;;;;;;;;5086020;28;19916;-81
2024/01/09 13:15:56;;;;;;;;;;;;;;;;;;5082829;28;19991;-82
2024/01/09 13:18:22;;;;;;;;;;;;;;;;;;5087674;28;19943;-81
2024/01/09 13:20:49;;;;;;;;;;;;;;;;;;5085967;28;19924;-82
2024/01/09 13:23:15;;;;;;;;;;;;;;;;;;5087228;28;19971;-82
2024/01/09 13:25:41;;;;;;;;;;;;;;;;;;5077469;28;19971;-82
2024/01/09 13:28:07;;;;;;;;;;;;;;;;;;5081518;28;19912;-81
2024/01/09 13:30:33;;;;;;;;;;;;;;;;;;5078257;28;19916;-82
2024/01/09 13:33:00;;;;;;;;;;;;;;;;;;5078401;28;20374;-81
2024/01/09 13:35:26;;;;;;;;;;;;;;;;;;5083982;28;19919;-82
2024/01/09 13:37:55;;;;;;;;;;;;;;;;;;5082903;28;19916;-82
2024/01/09 13:40:21;;;;;;;;;;;;;;;;;;5079861;28;19918;-82
2024/01/09 13:42:46;;;;;;;;;;;;;;;;;;5080230;28;20003;-81
2024/01/09 13:45:12;;;;;;;;;;;;;;;;;;5086744;28;19919;-81
2024/01/09 13:47:38;;;;;;;;;;;;;;;;;;5071236;28;19959;-82
2024/01/09 13:50:04;;;;;;;;;;;;;;;;;;5088316;28;20417;-81
2024/01/09 13:52:30;;;;;;;;;;;;;;;;;;5076603;28;20422;-81
2024/01/09 13:54:56;;;;;;;;;;;;;;;;;;5077994;28;20329;-82
2024/01/09 13:57:22;;;;;;;;;;;;;;;;;;5081564;28;20341;-82
2024/01/09 13:59:48;;;;;;;;;;;;;;;;;;5068978;28;19913;-81
2024/01/09 14:02:14;;;;;;;;;;;;;;;;;;5085057;28;19941;-82
2024/01/09 14:04:39;;;;;;;;;;;;;;;;;;5085415;28;20378;-82
2024/01/09 14:07:09;;;;;;;;;;;;;;;;;;5081059;28;19920;-82
2024/01/09 14:09:35;;;;;;;;;;;;;;;;;;5079282;28;19912;-81
2024/01/09 14:12:02;;;;;;;;;;;;;;;;;;5087791;28;20358;-82
2024/01/09 14:14:28;;;;;;;;;;;;;;;;;;5084237;28;19912;-83
2024/01/09 14:16:54;;;;;;;;;;;;;;;;;;5081564;28;19912;-83
2024/01/09 14:19:20;;;;;;;;;;;;;;;;;;5085519;28;19920;-82
2024/01/09 14:21:47;;;;;;;;;;;;;;;;;;5085085;28;19943;-82
2024/01/09 14:24:12;;;;;;;;;;;;;;;;;;5079525;28;19920;-83
2024/01/09 14:26:38;;;;;;;;;;;;;;;;;;5086192;28;20362;-83
2024/01/09 14:29:04;;;;;;;;;;;;;;;;;;5085202;28;20282;-85
2024/01/09 14:31:30;;;;;;;;;;;;;;;;;;5077237;28;20267;-82
2024/01/09 14:33:56;;;;;;;;;;;;;;;;;;5083538;28;19969;-84
2024/01/09 14:36:22;;;;;;;;;;;;;;;;;;5085028;28;19942;-83
2024/01/09 14:38:47;;;;;;;;;;;;;;;;;;5083412;28;19981;-83
2024/01/09 14:41:13;;;;;;;;;;;;;;;;;;5086118;28;20018;-82
2024/01/09 14:43:39;;;;;;;;;;;;;;;;;;5084229;28;19966;-82
2024/01/09 14:46:06;;;;;;;;;;;;;;;;;;5083347;28;19912;-82
2024/01/09 14:48:32;;;;;;;;;;;;;;;;;;5081450;28;20432;-83
2024/01/09 14:50:58;;;;;;;;;;;;;;;;;;5080963;28;19923;-82
2024/01/09 14:53:23;;;;;;;;;;;;;;;;;;5081779;28;20387;-82
2024/01/09 14:55:49;;;;;;;;;;;;;;;;;;5083718;28;19908;-81
2024/01/09 14:58:15;;;;;;;;;;;;;;;;;;5086714;28;19923;-81
2024/01/09 15:00:41;;;;;;;;;;;;;;;;;;5083435;28;19908;-82
2024/01/09 15:03:07;;;;;;;;;;;;;;;;;;5086764;28;20071;-81
2024/01/09 15:05:33;;;;;;;;;;;;;;;;;;5089794;28;20011;-83
2024/01/09 15:07:59;;;;;;;;;;;;;;;;;;5080724;28;19912;-83
2024/01/09 15:10:24;;;;;;;;;;;;;;;;;;5081117;28;19913;-82
2024/01/09 15:12:51;;;;;;;;;;;;;;;;;;5086634;28;19908;-82
2024/01/09 15:15:17;;;;;;;;;;;;;;;;;;5090084;28;19916;-82
2024/01/09 15:17:43;;;;;;;;;;;;;;;;;;5084420;28;19908;-81
2024/01/09 15:20:10;;;;;;;;;;;;;;;;;;5082982;28;19920;-80
2024/01/09 15:22:36;;;;;;;;;;;;;;;;;;5087958;28;19936;-79
2024/01/09 15:25:01;;;;;;;;;;;;;;;;;;5085165;28;19916;-86
2024/01/09 15:27:27;;;;;;;;;;;;;;;;;;5090029;28;19920;-87
2024/01/09 15:29:54;;;;;;;;;;;;;;;;;;5086088;28;19920;-85
2024/01/09 15:32:19;;;;;;;;;;;;;;;;;;5085149;28;20045;-81
2024/01/09 15:34:46;;;;;;;;;;;;;;;;;;5079815;28;20091;-80
2024/01/09 15:37:11;;;;;;;;;;;;;;;;;;5084491;28;19916;-86
2024/01/09 15:39:38;;;;;;;;;;;;;;;;;;5078376;28;19927;-86
2024/01/09 15:42:04;;;;;;;;;;;;;;;;;;5088179;28;19914;-84
2024/01/09 15:44:30;;;;;;;;;;;;;;;;;;5072584;28;20037;-86
2024/01/09 15:46:56;;;;;;;;;;;;;;;;;;5079578;28;19921;-89
2024/01/09 15:49:22;;;;;;;;;;;;;;;;;;5088006;28;19923;-84
2024/01/09 15:51:47;;;;;;;;;;;;;;;;;;5086337;28;20014;-85
2024/01/09 15:54:13;;;;;;;;;;;;;;;;;;5089181;28;19912;-88
2024/01/09 15:56:41;;;;;;;;;;;;;;;;;;5090387;28;19931;-82
2024/01/09 15:59:06;;;;;;;;;;;;;;;;;;5079350;28;20003;-84
2024/01/09 16:01:32;;;;;;;;;;;;;;;;;;5084504;28;19958;-90
2024/01/09 16:03:58;;;;;;;;;;;;;;;;;;5087718;28;20007;-87
2024/01/09 16:06:24;;;;;;;;;;;;;;;;;;5088144;28;20297;-88
2024/01/09 16:08:50;;;;;;;;;;;;;;;;;;5089606;28;19912;-88
2024/01/09 16:11:16;;;;;;;;;;;;;;;;;;5084119;28;19912;-88
2024/01/09 16:13:42;;;;;;;;;;;;;;;;;;5090284;28;20374;-80
2024/01/09 16:16:08;;;;;;;;;;;;;;;;;;5083774;28;19947;-88
2024/01/09 16:18:34;;;;;;;;;;;;;;;;;;5086409;28;20057;-88
2024/01/09 16:21:00;;;;;;;;;;;;;;;;;;5086120;28;20425;-87
2024/01/09 16:23:26;;;;;;;;;;;;;;;;;;5083593;28;19950;-88
2024/01/09 16:25:52;;;;;;;;;;;;;;;;;;5086884;28;19916;-88
2024/01/09 16:28:19;;;;;;;;;;;;;;;;;;5084115;28;20054;-88
2024/01/09 16:30:45;;;;;;;;;;;;;;;;;;5083261;28;20046;-87
2024/01/09 16:33:10;;;;;;;;;;;;;;;;;;5077391;28;20069;-81
2024/01/09 16:35:36;;;;;;;;;;;;;;;;;;5082141;28;19931;-87